Split, Croatia

7:41 AM CET on January 19, 2017 (GMT +0100)
Kastela | | Change Station

Elev 62 ft 43.53 °N, 16.30 °E | Updated 11 minutes ago

Mostly Cloudy
Mostly Cloudy
43 °F
Feels Like 35 °F
N
16
Wind Variable Wind from NE

Today
High -- | Low -- °F
--% Chance of Precip.
Yesterday
High -- | Low -- °F
Precip. -- in
Pressure 30.18 in
Visibility 6.2 miles
Clouds Mostly Cloudy 6000 ft
Windchill 35 °F
Dew Point 21 °F
Humidity 42%
Rainfall 0.00 in
Snow Depth Not available.
7:22 AM 4:49 PM
Waning Gibbous, 56% visible
METAR LDSP 190630Z 04014KT 9999 BKN060 06/M06 Q1022 TEMPO 04020G30KT
Pressure 30.18 in
Visibility 6.2 miles
Clouds Mostly Cloudy 6000 ft
Windchill 35 °F
Dew Point 21 °F
Humidity 42%
Rainfall 0.00 in
Snow Depth Not available.
7:22 AM 4:49 PM
Waning Gibbous, 56% visible
METAR LDSP 190630Z 04014KT 9999 BKN060 06/M06 Q1022 TEMPO 04020G30KT

Get Your Daily Forecast Email!

Thanks for signing up!

Be on the lookout for a verification email in your inbox.

You'll start receiving the daily forecast at 8 AM.

×

10-Day Weather Forecast

×

Almanac

Astronomy

Jan. 19, 2017 Rise Set
Actual Time
Civil Twilight
Nautical Twilight
Astronomical Twilight
Moon
Length of Visible Light
Length of Day
Tomorrow will be .
, % of the Moon is Illuminated

Today's Extremes

Country Highs Country Lows

Community

WunderPhotos

Upload Photos

1,962,540 photos uploaded!

WunderBlog® & News

Nearby

Air Quality

  Air Quality AQ Index Pollutant
Not available.

Snow Depth

Station Depth Elevation

Earthquake Activity

City Distance Mag. Time & Date
Minimum magnitude displayed is 2.5.

Coastal Water Temperatures

Place Temperature

Stations

Nearby Weather Stations

Station Location Temp. Windchill Dew Point Humidity Wind Precip. Elev Updated Type